sensor_id;sensor_type;location;lat;lon;timestamp;P1;durP1;ratioP1;P2;durP2;ratioP2
7195;SDS011;3639;51.308;5.624;2022-07-01T00:01:57;8.00;;;4.93;;
7195;SDS011;3639;51.308;5.624;2022-07-01T00:04:22;6.30;;;4.50;;
7195;SDS011;3639;51.308;5.624;2022-07-01T00:06:52;7.10;;;4.75;;
7195;SDS011;3639;51.308;5.624;2022-07-01T00:09:18;6.57;;;3.90;;
7195;SDS011;3639;51.308;5.624;2022-07-01T00:11:43;6.63;;;4.57;;
7195;SDS011;3639;51.308;5.624;2022-07-01T00:14:09;6.50;;;4.57;;
7195;SDS011;3639;51.308;5.624;2022-07-01T00:16:35;5.93;;;3.83;;
7195;SDS011;3639;51.308;5.624;2022-07-01T00:19:01;7.13;;;4.77;;
7195;SDS011;3639;51.308;5.624;2022-07-01T00:21:27;5.00;;;3.83;;
7195;SDS011;3639;51.308;5.624;2022-07-01T00:23:53;6.43;;;4.00;;
7195;SDS011;3639;51.308;5.624;2022-07-01T00:26:19;6.23;;;4.13;;
7195;SDS011;3639;51.308;5.624;2022-07-01T00:28:44;4.60;;;3.60;;
7195;SDS011;3639;51.308;5.624;2022-07-01T00:31:10;5.57;;;4.33;;
7195;SDS011;3639;51.308;5.624;2022-07-01T00:33:36;7.57;;;5.10;;
7195;SDS011;3639;51.308;5.624;2022-07-01T00:36:01;6.63;;;3.40;;
7195;SDS011;3639;51.308;5.624;2022-07-01T00:38:27;6.53;;;4.23;;
7195;SDS011;3639;51.308;5.624;2022-07-01T00:40:53;9.17;;;5.10;;
7195;SDS011;3639;51.308;5.624;2022-07-01T00:43:20;6.67;;;4.10;;
7195;SDS011;3639;51.308;5.624;2022-07-01T00:45:49;6.60;;;3.93;;
7195;SDS011;3639;51.308;5.624;2022-07-01T00:48:16;8.23;;;4.83;;
7195;SDS011;3639;51.308;5.624;2022-07-01T00:50:43;7.03;;;4.13;;
7195;SDS011;3639;51.308;5.624;2022-07-01T00:53:09;5.43;;;4.00;;
7195;SDS011;3639;51.308;5.624;2022-07-01T00:55:35;6.40;;;4.30;;
7195;SDS011;3639;51.308;5.624;2022-07-01T00:58:01;8.43;;;4.10;;
7195;SDS011;3639;51.308;5.624;2022-07-01T01:00:27;7.77;;;4.53;;
7195;SDS011;3639;51.308;5.624;2022-07-01T01:02:53;6.10;;;3.60;;
7195;SDS011;3639;51.308;5.624;2022-07-01T01:05:18;5.50;;;3.57;;
7195;SDS011;3639;51.308;5.624;2022-07-01T01:07:45;5.83;;;3.37;;
7195;SDS011;3639;51.308;5.624;2022-07-01T01:10:12;8.00;;;3.63;;
7195;SDS011;3639;51.308;5.624;2022-07-01T01:12:39;5.80;;;3.70;;
7195;SDS011;3639;51.308;5.624;2022-07-01T01:15:06;6.40;;;4.40;;
7195;SDS011;3639;51.308;5.624;2022-07-01T01:17:32;5.63;;;3.90;;
7195;SDS011;3639;51.308;5.624;2022-07-01T01:19:57;7.60;;;4.60;;
7195;SDS011;3639;51.308;5.624;2022-07-01T01:22:23;5.80;;;3.43;;
7195;SDS011;3639;51.308;5.624;2022-07-01T01:24:49;4.37;;;3.10;;
7195;SDS011;3639;51.308;5.624;2022-07-01T01:27:15;6.70;;;4.03;;
7195;SDS011;3639;51.308;5.624;2022-07-01T01:29:41;5.90;;;3.33;;
7195;SDS011;3639;51.308;5.624;2022-07-01T01:32:08;4.67;;;3.43;;
7195;SDS011;3639;51.308;5.624;2022-07-01T01:34:35;5.30;;;3.13;;
7195;SDS011;3639;51.308;5.624;2022-07-01T01:37:02;5.60;;;3.67;;
7195;SDS011;3639;51.308;5.624;2022-07-01T01:39:29;5.17;;;3.40;;
7195;SDS011;3639;51.308;5.624;2022-07-01T01:41:55;7.17;;;3.63;;
7195;SDS011;3639;51.308;5.624;2022-07-01T01:44:21;5.37;;;3.93;;
7195;SDS011;3639;51.308;5.624;2022-07-01T01:46:46;6.40;;;3.57;;
7195;SDS011;3639;51.308;5.624;2022-07-01T01:49:12;7.47;;;4.30;;
7195;SDS011;3639;51.308;5.624;2022-07-01T01:51:38;6.43;;;3.87;;
7195;SDS011;3639;51.308;5.624;2022-07-01T01:54:03;8.60;;;5.27;;
7195;SDS011;3639;51.308;5.624;2022-07-01T01:56:30;5.87;;;4.37;;
7195;SDS011;3639;51.308;5.624;2022-07-01T01:58:56;5.77;;;3.93;;
7195;SDS011;3639;51.308;5.624;2022-07-01T02:01:22;6.23;;;4.90;;
7195;SDS011;3639;51.308;5.624;2022-07-01T02:03:48;6.13;;;3.77;;
7195;SDS011;3639;51.308;5.624;2022-07-01T02:06:15;7.67;;;4.60;;
7195;SDS011;3639;51.308;5.624;2022-07-01T02:08:42;5.33;;;3.37;;
7195;SDS011;3639;51.308;5.624;2022-07-01T02:11:08;6.13;;;3.73;;
7195;SDS011;3639;51.308;5.624;2022-07-01T02:13:34;7.03;;;4.37;;
7195;SDS011;3639;51.308;5.624;2022-07-01T02:16:00;6.80;;;4.13;;
7195;SDS011;3639;51.308;5.624;2022-07-01T02:18:27;6.93;;;4.17;;
7195;SDS011;3639;51.308;5.624;2022-07-01T02:20:53;6.07;;;4.60;;
7195;SDS011;3639;51.308;5.624;2022-07-01T02:23:19;7.23;;;4.60;;
7195;SDS011;3639;51.308;5.624;2022-07-01T02:25:45;4.83;;;3.23;;
7195;SDS011;3639;51.308;5.624;2022-07-01T02:28:14;6.17;;;3.60;;
7195;SDS011;3639;51.308;5.624;2022-07-01T02:30:41;7.17;;;4.50;;
7195;SDS011;3639;51.308;5.624;2022-07-01T02:33:07;5.23;;;4.33;;
7195;SDS011;3639;51.308;5.624;2022-07-01T02:35:38;6.90;;;4.40;;
7195;SDS011;3639;51.308;5.624;2022-07-01T02:38:05;4.47;;;3.83;;
7195;SDS011;3639;51.308;5.624;2022-07-01T02:40:31;9.03;;;5.40;;
7195;SDS011;3639;51.308;5.624;2022-07-01T02:42:59;5.63;;;4.03;;
7195;SDS011;3639;51.308;5.624;2022-07-01T02:45:25;5.53;;;4.30;;
7195;SDS011;3639;51.308;5.624;2022-07-01T02:47:50;5.43;;;3.93;;
7195;SDS011;3639;51.308;5.624;2022-07-01T02:50:17;10.03;;;3.70;;
7195;SDS011;3639;51.308;5.624;2022-07-01T02:52:44;6.43;;;3.97;;
7195;SDS011;3639;51.308;5.624;2022-07-01T02:55:11;7.57;;;4.03;;
7195;SDS011;3639;51.308;5.624;2022-07-01T02:57:38;5.43;;;3.67;;
7195;SDS011;3639;51.308;5.624;2022-07-01T03:00:05;5.87;;;3.50;;
7195;SDS011;3639;51.308;5.624;2022-07-01T03:02:32;7.53;;;4.27;;
7195;SDS011;3639;51.308;5.624;2022-07-01T03:04:58;4.33;;;3.93;;
7195;SDS011;3639;51.308;5.624;2022-07-01T03:07:25;5.80;;;3.87;;
7195;SDS011;3639;51.308;5.624;2022-07-01T03:09:51;8.77;;;4.03;;
7195;SDS011;3639;51.308;5.624;2022-07-01T03:12:17;6.53;;;4.13;;
7195;SDS011;3639;51.308;5.624;2022-07-01T03:14:54;6.57;;;4.03;;
7195;SDS011;3639;51.308;5.624;2022-07-01T03:17:39;6.07;;;3.90;;
7195;SDS011;3639;51.308;5.624;2022-07-01T03:20:07;5.73;;;3.47;;
7195;SDS011;3639;51.308;5.624;2022-07-01T03:22:35;9.17;;;4.10;;
7195;SDS011;3639;51.308;5.624;2022-07-01T03:25:02;5.23;;;4.00;;
7195;SDS011;3639;51.308;5.624;2022-07-01T03:27:29;9.43;;;4.77;;
7195;SDS011;3639;51.308;5.624;2022-07-01T03:29:55;7.37;;;4.77;;
7195;SDS011;3639;51.308;5.624;2022-07-01T03:32:22;5.73;;;4.40;;
7195;SDS011;3639;51.308;5.624;2022-07-01T03:34:48;4.23;;;3.47;;
7195;SDS011;3639;51.308;5.624;2022-07-01T03:37:16;7.23;;;4.20;;
7195;SDS011;3639;51.308;5.624;2022-07-01T03:39:43;5.30;;;4.13;;
7195;SDS011;3639;51.308;5.624;2022-07-01T03:42:09;9.47;;;6.53;;
7195;SDS011;3639;51.308;5.624;2022-07-01T03:44:35;5.40;;;4.17;;
7195;SDS011;3639;51.308;5.624;2022-07-01T03:47:02;6.77;;;4.77;;
7195;SDS011;3639;51.308;5.624;2022-07-01T03:49:28;7.93;;;4.30;;
7195;SDS011;3639;51.308;5.624;2022-07-01T03:51:54;5.27;;;4.00;;
7195;SDS011;3639;51.308;5.624;2022-07-01T03:54:20;4.97;;;3.47;;
7195;SDS011;3639;51.308;5.624;2022-07-01T03:56:54;7.60;;;5.10;;
7195;SDS011;3639;51.308;5.624;2022-07-01T03:59:30;7.17;;;5.07;;
7195;SDS011;3639;51.308;5.624;2022-07-01T04:01:57;8.07;;;5.43;;
7195;SDS011;3639;51.308;5.624;2022-07-01T04:04:24;7.23;;;5.23;;
7195;SDS011;3639;51.308;5.624;2022-07-01T04:06:50;8.03;;;5.20;;
7195;SDS011;3639;51.308;5.624;2022-07-01T04:09:17;9.83;;;5.73;;
7195;SDS011;3639;51.308;5.624;2022-07-01T04:11:45;9.40;;;7.47;;
7195;SDS011;3639;51.308;5.624;2022-07-01T04:14:12;10.20;;;6.77;;
7195;SDS011;3639;51.308;5.624;2022-07-01T04:16:38;11.77;;;5.97;;
7195;SDS011;3639;51.308;5.624;2022-07-01T04:19:04;10.47;;;5.87;;
7195;SDS011;3639;51.308;5.624;2022-07-01T04:21:31;9.47;;;5.57;;
7195;SDS011;3639;51.308;5.624;2022-07-01T04:24:15;8.53;;;6.07;;
7195;SDS011;3639;51.308;5.624;2022-07-01T04:26:41;11.37;;;6.60;;
7195;SDS011;3639;51.308;5.624;2022-07-01T04:29:07;8.77;;;6.20;;
7195;SDS011;3639;51.308;5.624;2022-07-01T04:31:34;13.77;;;7.60;;
7195;SDS011;3639;51.308;5.624;2022-07-01T04:34:01;10.53;;;6.53;;
7195;SDS011;3639;51.308;5.624;2022-07-01T04:36:27;10.00;;;6.83;;
7195;SDS011;3639;51.308;5.624;2022-07-01T04:38:53;8.23;;;5.70;;
7195;SDS011;3639;51.308;5.624;2022-07-01T04:41:19;9.70;;;5.77;;
7195;SDS011;3639;51.308;5.624;2022-07-01T04:44:03;8.63;;;6.20;;
7195;SDS011;3639;51.308;5.624;2022-07-01T04:46:29;10.60;;;6.73;;
7195;SDS011;3639;51.308;5.624;2022-07-01T04:48:55;9.53;;;6.40;;
7195;SDS011;3639;51.308;5.624;2022-07-01T04:51:20;8.93;;;6.13;;
7195;SDS011;3639;51.308;5.624;2022-07-01T04:53:46;8.40;;;5.90;;
7195;SDS011;3639;51.308;5.624;2022-07-01T04:56:13;11.10;;;6.47;;
7195;SDS011;3639;51.308;5.624;2022-07-01T04:58:39;7.00;;;4.47;;
7195;SDS011;3639;51.308;5.624;2022-07-01T05:01:04;7.30;;;5.50;;
7195;SDS011;3639;51.308;5.624;2022-07-01T05:03:30;8.70;;;5.17;;
7195;SDS011;3639;51.308;5.624;2022-07-01T05:05:55;6.90;;;5.77;;
7195;SDS011;3639;51.308;5.624;2022-07-01T05:08:21;7.83;;;5.27;;
7195;SDS011;3639;51.308;5.624;2022-07-01T05:10:47;8.00;;;5.57;;
7195;SDS011;3639;51.308;5.624;2022-07-01T05:13:12;7.53;;;5.50;;
7195;SDS011;3639;51.308;5.624;2022-07-01T05:15:38;6.67;;;4.67;;
7195;SDS011;3639;51.308;5.624;2022-07-01T05:18:04;7.37;;;5.50;;
7195;SDS011;3639;51.308;5.624;2022-07-01T05:20:48;11.73;;;5.87;;
7195;SDS011;3639;51.308;5.624;2022-07-01T05:23:34;7.83;;;5.40;;
7195;SDS011;3639;51.308;5.624;2022-07-01T05:26:01;7.33;;;5.20;;
7195;SDS011;3639;51.308;5.624;2022-07-01T05:28:27;8.23;;;5.63;;
7195;SDS011;3639;51.308;5.624;2022-07-01T05:30:52;8.27;;;5.40;;
7195;SDS011;3639;51.308;5.624;2022-07-01T05:33:18;7.97;;;5.17;;
7195;SDS011;3639;51.308;5.624;2022-07-01T05:35:46;6.20;;;4.87;;
7195;SDS011;3639;51.308;5.624;2022-07-01T05:38:12;7.00;;;4.80;;
7195;SDS011;3639;51.308;5.624;2022-07-01T05:40:38;9.67;;;5.43;;
7195;SDS011;3639;51.308;5.624;2022-07-01T05:43:03;6.53;;;4.73;;
7195;SDS011;3639;51.308;5.624;2022-07-01T05:45:29;8.27;;;4.53;;
7195;SDS011;3639;51.308;5.624;2022-07-01T05:47:54;7.70;;;5.33;;
7195;SDS011;3639;51.308;5.624;2022-07-01T05:50:21;6.37;;;5.10;;
7195;SDS011;3639;51.308;5.624;2022-07-01T05:52:47;6.67;;;4.83;;
7195;SDS011;3639;51.308;5.624;2022-07-01T05:55:13;6.63;;;5.33;;
7195;SDS011;3639;51.308;5.624;2022-07-01T05:57:39;5.10;;;4.40;;
7195;SDS011;3639;51.308;5.624;2022-07-01T06:00:05;7.63;;;4.80;;
7195;SDS011;3639;51.308;5.624;2022-07-01T06:02:31;6.10;;;4.13;;
7195;SDS011;3639;51.308;5.624;2022-07-01T06:04:57;6.90;;;4.53;;
7195;SDS011;3639;51.308;5.624;2022-07-01T06:07:24;6.67;;;4.00;;
7195;SDS011;3639;51.308;5.624;2022-07-01T06:09:50;5.77;;;4.27;;
7195;SDS011;3639;51.308;5.624;2022-07-01T06:12:15;4.47;;;3.60;;
7195;SDS011;3639;51.308;5.624;2022-07-01T06:14:41;6.23;;;4.77;;
7195;SDS011;3639;51.308;5.624;2022-07-01T06:17:08;4.90;;;4.23;;
7195;SDS011;3639;51.308;5.624;2022-07-01T06:19:34;7.10;;;4.70;;
7195;SDS011;3639;51.308;5.624;2022-07-01T06:22:00;5.33;;;4.10;;
7195;SDS011;3639;51.308;5.624;2022-07-01T06:24:26;5.40;;;3.87;;
7195;SDS011;3639;51.308;5.624;2022-07-01T06:26:51;5.40;;;4.03;;
7195;SDS011;3639;51.308;5.624;2022-07-01T06:29:17;8.77;;;4.40;;
7195;SDS011;3639;51.308;5.624;2022-07-01T06:31:42;5.30;;;3.93;;
7195;SDS011;3639;51.308;5.624;2022-07-01T06:34:08;7.43;;;4.30;;
7195;SDS011;3639;51.308;5.624;2022-07-01T06:36:34;4.50;;;4.00;;
7195;SDS011;3639;51.308;5.624;2022-07-01T06:38:59;5.93;;;4.27;;
7195;SDS011;3639;51.308;5.624;2022-07-01T06:41:26;6.47;;;4.90;;
7195;SDS011;3639;51.308;5.624;2022-07-01T06:43:51;7.17;;;4.40;;
7195;SDS011;3639;51.308;5.624;2022-07-01T06:46:18;7.30;;;4.43;;
7195;SDS011;3639;51.308;5.624;2022-07-01T06:48:44;6.13;;;4.43;;
7195;SDS011;3639;51.308;5.624;2022-07-01T06:51:10;8.03;;;4.53;;
7195;SDS011;3639;51.308;5.624;2022-07-01T06:53:37;5.40;;;4.47;;
7195;SDS011;3639;51.308;5.624;2022-07-01T06:56:03;7.27;;;4.87;;
7195;SDS011;3639;51.308;5.624;2022-07-01T06:58:30;4.37;;;3.57;;
7195;SDS011;3639;51.308;5.624;2022-07-01T07:00:56;5.00;;;3.97;;
7195;SDS011;3639;51.308;5.624;2022-07-01T07:03:21;4.40;;;3.70;;
7195;SDS011;3639;51.308;5.624;2022-07-01T07:05:47;5.13;;;4.03;;
7195;SDS011;3639;51.308;5.624;2022-07-01T07:08:13;3.93;;;3.03;;
7195;SDS011;3639;51.308;5.624;2022-07-01T07:10:38;6.17;;;3.10;;
7195;SDS011;3639;51.308;5.624;2022-07-01T07:13:04;3.43;;;2.97;;
7195;SDS011;3639;51.308;5.624;2022-07-01T07:15:30;3.20;;;2.90;;
7195;SDS011;3639;51.308;5.624;2022-07-01T07:17:56;2.60;;;2.40;;
7195;SDS011;3639;51.308;5.624;2022-07-01T07:20:22;4.70;;;2.73;;
7195;SDS011;3639;51.308;5.624;2022-07-01T07:22:51;3.67;;;2.23;;
7195;SDS011;3639;51.308;5.624;2022-07-01T07:25:16;3.83;;;3.07;;
7195;SDS011;3639;51.308;5.624;2022-07-01T07:27:42;4.23;;;2.60;;
7195;SDS011;3639;51.308;5.624;2022-07-01T07:30:11;4.63;;;2.03;;
7195;SDS011;3639;51.308;5.624;2022-07-01T07:32:38;2.70;;;2.00;;
7195;SDS011;3639;51.308;5.624;2022-07-01T07:35:05;1.77;;;1.63;;
7195;SDS011;3639;51.308;5.624;2022-07-01T07:37:31;7.50;;;1.63;;
7195;SDS011;3639;51.308;5.624;2022-07-01T07:39:57;3.50;;;1.70;;
7195;SDS011;3639;51.308;5.624;2022-07-01T07:42:24;2.30;;;1.60;;
7195;SDS011;3639;51.308;5.624;2022-07-01T07:44:56;2.00;;;1.70;;
7195;SDS011;3639;51.308;5.624;2022-07-01T07:47:21;2.37;;;1.77;;
7195;SDS011;3639;51.308;5.624;2022-07-01T07:49:47;1.30;;;1.20;;
7195;SDS011;3639;51.308;5.624;2022-07-01T07:52:12;2.10;;;1.60;;
7195;SDS011;3639;51.308;5.624;2022-07-01T07:54:38;2.43;;;1.47;;
7195;SDS011;3639;51.308;5.624;2022-07-01T07:57:04;1.40;;;1.30;;
7195;SDS011;3639;51.308;5.624;2022-07-01T07:59:30;2.00;;;1.40;;
7195;SDS011;3639;51.308;5.624;2022-07-01T08:01:56;1.83;;;1.47;;
7195;SDS011;3639;51.308;5.624;2022-07-01T08:04:22;1.77;;;1.30;;
7195;SDS011;3639;51.308;5.624;2022-07-01T08:06:48;4.70;;;1.40;;
7195;SDS011;3639;51.308;5.624;2022-07-01T08:09:14;1.30;;;1.20;;
7195;SDS011;3639;51.308;5.624;2022-07-01T08:11:40;2.20;;;2.00;;
7195;SDS011;3639;51.308;5.624;2022-07-01T08:14:06;1.50;;;1.20;;
7195;SDS011;3639;51.308;5.624;2022-07-01T08:16:32;1.20;;;1.00;;
7195;SDS011;3639;51.308;5.624;2022-07-01T08:18:58;1.50;;;1.13;;
7195;SDS011;3639;51.308;5.624;2022-07-01T08:21:23;1.03;;;0.93;;
7195;SDS011;3639;51.308;5.624;2022-07-01T08:23:49;2.10;;;1.10;;
7195;SDS011;3639;51.308;5.624;2022-07-01T08:26:15;1.80;;;1.00;;
7195;SDS011;3639;51.308;5.624;2022-07-01T08:28:42;1.33;;;1.20;;
7195;SDS011;3639;51.308;5.624;2022-07-01T08:31:08;1.17;;;1.07;;
7195;SDS011;3639;51.308;5.624;2022-07-01T08:33:33;3.03;;;1.03;;
7195;SDS011;3639;51.308;5.624;2022-07-01T08:35:59;1.17;;;1.03;;
7195;SDS011;3639;51.308;5.624;2022-07-01T08:38:25;1.03;;;0.97;;
7195;SDS011;3639;51.308;5.624;2022-07-01T08:40:52;1.27;;;1.00;;
7195;SDS011;3639;51.308;5.624;2022-07-01T08:43:19;1.50;;;0.97;;
7195;SDS011;3639;51.308;5.624;2022-07-01T08:45:44;1.00;;;0.90;;
7195;SDS011;3639;51.308;5.624;2022-07-01T08:48:10;1.40;;;1.30;;
7195;SDS011;3639;51.308;5.624;2022-07-01T08:50:38;1.00;;;0.90;;
7195;SDS011;3639;51.308;5.624;2022-07-01T08:53:07;2.27;;;1.10;;
7195;SDS011;3639;51.308;5.624;2022-07-01T08:55:34;1.40;;;0.93;;
7195;SDS011;3639;51.308;5.624;2022-07-01T08:58:20;0.80;;;0.70;;
7195;SDS011;3639;51.308;5.624;2022-07-01T09:00:47;0.90;;;0.80;;
7195;SDS011;3639;51.308;5.624;2022-07-01T09:03:13;1.63;;;0.90;;
7195;SDS011;3639;51.308;5.624;2022-07-01T09:05:39;0.80;;;0.73;;
7195;SDS011;3639;51.308;5.624;2022-07-01T09:08:14;1.30;;;0.90;;
7195;SDS011;3639;51.308;5.624;2022-07-01T09:10:39;0.80;;;0.80;;
7195;SDS011;3639;51.308;5.624;2022-07-01T09:13:09;2.07;;;0.90;;
7195;SDS011;3639;51.308;5.624;2022-07-01T09:15:36;1.33;;;1.00;;
7195;SDS011;3639;51.308;5.624;2022-07-01T09:18:05;0.83;;;0.80;;
7195;SDS011;3639;51.308;5.624;2022-07-01T09:20:35;0.90;;;0.80;;
7195;SDS011;3639;51.308;5.624;2022-07-01T09:23:04;0.73;;;0.70;;
7195;SDS011;3639;51.308;5.624;2022-07-01T09:25:48;1.00;;;0.87;;
7195;SDS011;3639;51.308;5.624;2022-07-01T09:30:43;2.50;;;1.00;;
7195;SDS011;3639;51.308;5.624;2022-07-01T09:35:38;0.83;;;0.83;;
7195;SDS011;3639;51.308;5.624;2022-07-01T09:38:05;0.83;;;0.83;;
7195;SDS011;3639;51.308;5.624;2022-07-01T09:40:48;1.53;;;0.80;;
7195;SDS011;3639;51.308;5.624;2022-07-01T09:43:26;2.27;;;1.53;;
7195;SDS011;3639;51.308;5.624;2022-07-01T09:46:08;0.80;;;0.80;;
7195;SDS011;3639;51.308;5.624;2022-07-01T09:51:01;2.97;;;0.77;;
7195;SDS011;3639;51.308;5.624;2022-07-01T09:53:28;0.87;;;0.80;;
7195;SDS011;3639;51.308;5.624;2022-07-01T09:55:54;1.77;;;1.10;;
7195;SDS011;3639;51.308;5.624;2022-07-01T09:58:20;0.90;;;0.70;;
7195;SDS011;3639;51.308;5.624;2022-07-01T10:00:45;1.17;;;0.70;;
7195;SDS011;3639;51.308;5.624;2022-07-01T10:03:12;0.73;;;0.70;;
7195;SDS011;3639;51.308;5.624;2022-07-01T10:05:42;0.87;;;0.83;;
7195;SDS011;3639;51.308;5.624;2022-07-01T10:13:43;0.83;;;0.70;;
7195;SDS011;3639;51.308;5.624;2022-07-01T10:16:10;1.23;;;0.60;;
7195;SDS011;3639;51.308;5.624;2022-07-01T10:18:36;0.60;;;0.60;;
7195;SDS011;3639;51.308;5.624;2022-07-01T10:21:02;0.80;;;0.70;;
7195;SDS011;3639;51.308;5.624;2022-07-01T10:26:08;0.60;;;0.57;;
7195;SDS011;3639;51.308;5.624;2022-07-01T10:31:11;0.70;;;0.60;;
7195;SDS011;3639;51.308;5.624;2022-07-01T10:33:49;0.97;;;0.70;;
7195;SDS011;3639;51.308;5.624;2022-07-01T10:41:29;0.80;;;0.63;;
7195;SDS011;3639;51.308;5.624;2022-07-01T10:43:56;0.80;;;0.60;;
7195;SDS011;3639;51.308;5.624;2022-07-01T10:59:50;0.73;;;0.70;;
7195;SDS011;3639;51.308;5.624;2022-07-01T11:05:04;0.80;;;0.80;;
7195;SDS011;3639;51.308;5.624;2022-07-01T11:07:34;1.00;;;0.80;;
7195;SDS011;3639;51.308;5.624;2022-07-01T11:10:03;1.77;;;0.90;;
7195;SDS011;3639;51.308;5.624;2022-07-01T11:12:30;0.70;;;0.70;;
7195;SDS011;3639;51.308;5.624;2022-07-01T11:14:57;1.37;;;0.70;;
7195;SDS011;3639;51.308;5.624;2022-07-01T11:17:26;1.30;;;0.73;;
7195;SDS011;3639;51.308;5.624;2022-07-01T11:19:56;0.70;;;0.60;;
7195;SDS011;3639;51.308;5.624;2022-07-01T11:22:25;0.90;;;0.73;;
7195;SDS011;3639;51.308;5.624;2022-07-01T11:24:57;1.03;;;0.77;;
7195;SDS011;3639;51.308;5.624;2022-07-01T11:27:34;0.80;;;0.57;;
7195;SDS011;3639;51.308;5.624;2022-07-01T11:30:02;1.00;;;0.83;;
7195;SDS011;3639;51.308;5.624;2022-07-01T11:32:35;2.10;;;0.70;;
7195;SDS011;3639;51.308;5.624;2022-07-01T11:35:03;1.07;;;0.73;;
7195;SDS011;3639;51.308;5.624;2022-07-01T11:38:03;0.53;;;0.53;;
7195;SDS011;3639;51.308;5.624;2022-07-01T11:40:58;2.20;;;0.97;;
7195;SDS011;3639;51.308;5.624;2022-07-01T11:43:30;2.40;;;0.70;;
7195;SDS011;3639;51.308;5.624;2022-07-01T11:45:58;1.80;;;0.90;;
7195;SDS011;3639;51.308;5.624;2022-07-01T11:48:36;1.53;;;0.80;;
7195;SDS011;3639;51.308;5.624;2022-07-01T11:51:10;0.60;;;0.60;;
7195;SDS011;3639;51.308;5.624;2022-07-01T11:53:37;1.60;;;0.73;;
7195;SDS011;3639;51.308;5.624;2022-07-01T11:56:07;1.00;;;0.70;;
7195;SDS011;3639;51.308;5.624;2022-07-01T11:58:49;0.70;;;0.70;;
7195;SDS011;3639;51.308;5.624;2022-07-01T12:01:20;2.73;;;0.80;;
7195;SDS011;3639;51.308;5.624;2022-07-01T12:03:50;0.80;;;0.80;;
7195;SDS011;3639;51.308;5.624;2022-07-01T12:06:17;2.63;;;0.70;;
7195;SDS011;3639;51.308;5.624;2022-07-01T12:08:44;0.70;;;0.70;;
7195;SDS011;3639;51.308;5.624;2022-07-01T12:11:13;1.10;;;0.83;;
7195;SDS011;3639;51.308;5.624;2022-07-01T12:13:40;1.37;;;0.90;;
7195;SDS011;3639;51.308;5.624;2022-07-01T12:16:06;1.83;;;0.70;;
7195;SDS011;3639;51.308;5.624;2022-07-01T12:18:33;1.00;;;0.70;;
7195;SDS011;3639;51.308;5.624;2022-07-01T12:20:58;1.03;;;0.80;;
7195;SDS011;3639;51.308;5.624;2022-07-01T12:23:25;1.70;;;0.73;;
7195;SDS011;3639;51.308;5.624;2022-07-01T12:25:51;0.80;;;0.80;;
7195;SDS011;3639;51.308;5.624;2022-07-01T12:28:33;0.70;;;0.57;;
7195;SDS011;3639;51.308;5.624;2022-07-01T12:31:07;0.60;;;0.60;;
7195;SDS011;3639;51.308;5.624;2022-07-01T12:33:37;0.70;;;0.70;;
7195;SDS011;3639;51.308;5.624;2022-07-01T12:36:05;1.43;;;0.70;;
7195;SDS011;3639;51.308;5.624;2022-07-01T12:38:32;1.47;;;1.10;;
7195;SDS011;3639;51.308;5.624;2022-07-01T12:40:59;1.00;;;0.80;;
7195;SDS011;3639;51.308;5.624;2022-07-01T12:43:25;1.20;;;0.93;;
7195;SDS011;3639;51.308;5.624;2022-07-01T12:45:58;1.20;;;1.00;;
7195;SDS011;3639;51.308;5.624;2022-07-01T12:48:25;0.63;;;0.63;;
7195;SDS011;3639;51.308;5.624;2022-07-01T12:50:54;1.67;;;0.70;;
7195;SDS011;3639;51.308;5.624;2022-07-01T12:53:21;0.90;;;0.70;;
7195;SDS011;3639;51.308;5.624;2022-07-01T12:55:52;2.13;;;1.07;;
7195;SDS011;3639;51.308;5.624;2022-07-01T12:58:25;2.00;;;0.80;;
7195;SDS011;3639;51.308;5.624;2022-07-01T13:00:53;1.27;;;1.00;;
7195;SDS011;3639;51.308;5.624;2022-07-01T13:03:23;1.27;;;0.90;;
7195;SDS011;3639;51.308;5.624;2022-07-01T13:05:50;1.87;;;0.90;;
7195;SDS011;3639;51.308;5.624;2022-07-01T13:08:17;0.90;;;0.80;;
7195;SDS011;3639;51.308;5.624;2022-07-01T13:10:44;1.70;;;0.90;;
7195;SDS011;3639;51.308;5.624;2022-07-01T13:13:11;1.53;;;1.10;;
7195;SDS011;3639;51.308;5.624;2022-07-01T13:15:37;0.83;;;0.63;;
7195;SDS011;3639;51.308;5.624;2022-07-01T13:18:03;0.83;;;0.83;;
7195;SDS011;3639;51.308;5.624;2022-07-01T13:20:30;2.77;;;0.83;;
7195;SDS011;3639;51.308;5.624;2022-07-01T13:22:55;1.47;;;0.83;;
7195;SDS011;3639;51.308;5.624;2022-07-01T13:25:21;1.67;;;1.07;;
7195;SDS011;3639;51.308;5.624;2022-07-01T13:27:47;2.60;;;0.93;;
7195;SDS011;3639;51.308;5.624;2022-07-01T13:30:13;1.50;;;1.07;;
7195;SDS011;3639;51.308;5.624;2022-07-01T13:32:39;0.80;;;0.80;;
7195;SDS011;3639;51.308;5.624;2022-07-01T13:35:07;0.80;;;0.80;;
7195;SDS011;3639;51.308;5.624;2022-07-01T13:37:34;0.77;;;0.70;;
7195;SDS011;3639;51.308;5.624;2022-07-01T13:39:59;1.93;;;0.93;;
7195;SDS011;3639;51.308;5.624;2022-07-01T13:42:25;0.80;;;0.80;;
7195;SDS011;3639;51.308;5.624;2022-07-01T13:44:51;1.03;;;0.90;;
7195;SDS011;3639;51.308;5.624;2022-07-01T13:47:17;1.03;;;0.80;;
7195;SDS011;3639;51.308;5.624;2022-07-01T13:49:42;2.10;;;0.93;;
7195;SDS011;3639;51.308;5.624;2022-07-01T13:52:08;0.90;;;0.87;;
7195;SDS011;3639;51.308;5.624;2022-07-01T13:54:34;0.73;;;0.73;;
7195;SDS011;3639;51.308;5.624;2022-07-01T13:57:00;0.70;;;0.70;;
7195;SDS011;3639;51.308;5.624;2022-07-01T13:59:26;0.70;;;0.70;;
7195;SDS011;3639;51.308;5.624;2022-07-01T14:01:52;0.77;;;0.77;;
7195;SDS011;3639;51.308;5.624;2022-07-01T14:04:17;1.27;;;0.90;;
7195;SDS011;3639;51.308;5.624;2022-07-01T14:06:43;0.93;;;0.83;;
7195;SDS011;3639;51.308;5.624;2022-07-01T14:09:09;1.37;;;0.80;;
7195;SDS011;3639;51.308;5.624;2022-07-01T14:11:35;1.57;;;0.93;;
7195;SDS011;3639;51.308;5.624;2022-07-01T14:14:00;0.80;;;0.80;;
7195;SDS011;3639;51.308;5.624;2022-07-01T14:16:27;1.33;;;0.70;;
7195;SDS011;3639;51.308;5.624;2022-07-01T14:18:54;1.10;;;0.80;;
7195;SDS011;3639;51.308;5.624;2022-07-01T14:21:21;1.10;;;0.90;;
7195;SDS011;3639;51.308;5.624;2022-07-01T14:23:47;1.03;;;0.77;;
7195;SDS011;3639;51.308;5.624;2022-07-01T14:26:12;0.77;;;0.77;;
7195;SDS011;3639;51.308;5.624;2022-07-01T14:28:38;0.87;;;0.80;;
7195;SDS011;3639;51.308;5.624;2022-07-01T14:31:04;0.90;;;0.90;;
7195;SDS011;3639;51.308;5.624;2022-07-01T14:33:31;1.27;;;1.00;;
7195;SDS011;3639;51.308;5.624;2022-07-01T14:35:57;1.30;;;1.13;;
7195;SDS011;3639;51.308;5.624;2022-07-01T14:38:23;0.80;;;0.80;;
7195;SDS011;3639;51.308;5.624;2022-07-01T14:40:48;0.90;;;0.80;;
7195;SDS011;3639;51.308;5.624;2022-07-01T14:43:14;3.73;;;0.80;;
7195;SDS011;3639;51.308;5.624;2022-07-01T14:45:40;1.00;;;0.90;;
7195;SDS011;3639;51.308;5.624;2022-07-01T14:48:06;0.97;;;0.80;;
7195;SDS011;3639;51.308;5.624;2022-07-01T14:50:33;0.70;;;0.70;;
7195;SDS011;3639;51.308;5.624;2022-07-01T14:52:59;0.60;;;0.60;;
7195;SDS011;3639;51.308;5.624;2022-07-01T14:55:26;1.30;;;1.10;;
7195;SDS011;3639;51.308;5.624;2022-07-01T14:57:53;0.60;;;0.60;;
7195;SDS011;3639;51.308;5.624;2022-07-01T15:00:19;0.90;;;0.90;;
7195;SDS011;3639;51.308;5.624;2022-07-01T15:02:46;0.60;;;0.60;;
7195;SDS011;3639;51.308;5.624;2022-07-01T15:05:12;0.70;;;0.70;;
7195;SDS011;3639;51.308;5.624;2022-07-01T15:07:38;1.13;;;0.90;;
7195;SDS011;3639;51.308;5.624;2022-07-01T15:10:04;0.63;;;0.63;;
7195;SDS011;3639;51.308;5.624;2022-07-01T15:12:31;1.87;;;0.80;;
7195;SDS011;3639;51.308;5.624;2022-07-01T15:14:57;0.80;;;0.70;;
7195;SDS011;3639;51.308;5.624;2022-07-01T15:17:22;1.17;;;0.80;;
7195;SDS011;3639;51.308;5.624;2022-07-01T15:19:49;1.07;;;0.97;;
7195;SDS011;3639;51.308;5.624;2022-07-01T15:22:14;1.90;;;0.80;;
7195;SDS011;3639;51.308;5.624;2022-07-01T15:24:40;1.87;;;0.90;;
7195;SDS011;3639;51.308;5.624;2022-07-01T15:27:06;1.30;;;0.83;;
7195;SDS011;3639;51.308;5.624;2022-07-01T15:29:32;1.03;;;0.87;;
7195;SDS011;3639;51.308;5.624;2022-07-01T15:31:58;1.03;;;0.80;;
7195;SDS011;3639;51.308;5.624;2022-07-01T15:34:24;1.00;;;0.80;;
7195;SDS011;3639;51.308;5.624;2022-07-01T15:36:50;2.97;;;1.15;;
7195;SDS011;3639;51.308;5.624;2022-07-01T15:39:16;1.27;;;0.90;;
7195;SDS011;3639;51.308;5.624;2022-07-01T15:41:42;0.90;;;0.90;;
7195;SDS011;3639;51.308;5.624;2022-07-01T15:44:09;2.30;;;0.93;;
7195;SDS011;3639;51.308;5.624;2022-07-01T15:46:35;0.70;;;0.70;;
7195;SDS011;3639;51.308;5.624;2022-07-01T15:49:05;1.67;;;0.73;;
7195;SDS011;3639;51.308;5.624;2022-07-01T15:51:34;0.87;;;0.70;;
7195;SDS011;3639;51.308;5.624;2022-07-01T15:54:01;1.10;;;0.93;;
7195;SDS011;3639;51.308;5.624;2022-07-01T15:56:27;1.47;;;0.90;;